4165 Weather Reports


Display with metric or nautical units.
time (UTC)temp
F
wind
direction
speed
MPH
gust
MPH
rain 1hr
in
rain 24hr
in
rain mn
in
humidity
%
barometer
mb
20201026045818 54 354 2.0 6.0 0.00 0.00 0.00 11 1024.7
20201026044314 54 2 3.0 9.0 0.00 0.00 0.00 10 1024.5
20201026041319 55 325 2.0 9.0 0.00 0.00 0.00 10 1023.9
20201026035814 55 265 2.0 9.0 0.00 0.00 0.00 9 1023.7
20201026034309 56 326 3.0 10.0 0.00 0.00 0.00 9 1023.7
20201026031322 57 346 3.0 10.0 0.00 0.00 0.00 9 1023.6
20201026024315 57 287 1.0 5.0 0.00 0.00 0.00 10 1022.7
20201026022812 58 312 5.0 11.0 0.00 0.00 0.00 9 1022.3
20201026015813 58 7 3.0 10.0 0.00 0.00 0.00 11 1021.8
20201026012820 58 300 2.0 10.0 0.00 0.00 0.00 11 1022.0
20201026011314 59 53 3.0 12.0 0.00 0.00 0.00 11 1021.9
20201026004306 61 73 0.0 6.0 0.00 0.00 0.00 12 1020.8
20201026001319 62 31 3.0 8.0 0.00 0.00 0.00 12 1020.6
20201025235816 61 73 2.0 10.0 0.00 0.00 0.00 12 1020.2
20201025232820 62 21 2.0 6.0 0.00 0.00 0.00 11 1020.2
20201025231318 62 77 5.0 10.0 0.00 0.00 0.00 11 1019.6
20201025225824 62 21 6.0 12.0 0.00 0.00 0.00 11 1019.7
20201025222819 61 37 4.0 10.0 0.00 0.00 0.00 10 1019.7
20201025221319 61 336 4.0 13.0 0.00 0.00 0.00 11 1019.6
20201025215809 61 29 3.0 17.0 0.00 0.00 0.00 12 1019.9
20201025212817 60 98 2.0 16.0 0.00 0.00 0.00 13 1019.9
20201025211317 59 28 14.0 23.0 0.00 0.00 0.00 12 1019.6
20201025204408 60 32 5.0 15.0 0.00 0.00 0.00 14 1019.9
20201025202904 59 25 2.0 12.0 0.00 0.00 0.00 14 1020.1
20201025195911 60 252 5.0 11.0 0.00 0.00 0.00 15 1020.3
20201025194406 59 88 7.0 16.0 0.00 0.00 0.00 16 1020.0
20201025192859 58 288 4.0 10.0 0.00 0.00 0.00 18 1020.1
20201025185910 57 327 2.0 10.0 0.00 0.00 0.00 21 1020.5
20201025184412 56 224 6.0 16.0 0.00 0.00 0.00 23 1020.3
20201025181425 55 268 6.0 15.0 0.00 0.00 0.00 28 1020.1
20201025175911 55 308 9.0 15.0 0.00 0.00 0.00 29 1020.2
20201025174404 56 64 2.0 8.0 0.00 0.00 0.00 31 1019.9
20201025172900 56 58 1.0 10.0 0.00 0.00 0.00 31 1019.8
20201025165916 54 70 6.0 15.0 0.00 0.00 0.00 34 1019.3
20201025164415 55 116 3.0 8.0 0.00 0.00 0.00 37 1019.0
20201025162905 54 273 0.0 5.0 0.00 0.00 0.00 39 1018.8
20201025161357 54 238 1.0 4.0 0.00 0.00 0.00 38 1018.5
20201025154412 51 136 0.0 5.0 0.00 0.00 0.00 49 1018.1
20201025145902 47 254 0.0 0.0 0.00 0.00 0.00 63 1017.0
20201025141407 44 254 0.0 2.0 0.00 0.00 0.00 68 1015.6
20201025135910 45 252 0.0 0.0 0.00 0.00 0.00 66 1015.5
20201025132916 45 252 0.0 0.0 0.00 0.00 0.00 66 1014.8
20201025131404 45 252 0.0 0.0 0.00 0.00 0.00 67 1014.4
20201025125905 44 252 0.0 0.0 0.00 0.00 0.00 68 1014.3
20201025121409 46 252 3.0 7.0 0.00 0.00 0.00 63 1013.9
20201025115903 47 254 1.0 2.0 0.00 0.00 0.00 61 1013.7
20201025114402 47 246 1.0 3.0 0.00 0.00 0.00 61 1013.6
20201025112851 46 246 0.0 1.0 0.00 0.00 0.00 62 1013.6
20201025105914 47 281 0.0 2.0 0.00 0.00 0.00 61 1013.6
20201025102918 48 265 0.0 3.0 0.00 0.00 0.00 59 1013.5
20201025101411 48 265 0.0 5.0 0.00 0.00 0.00 58 1013.6
20201025095911 48 267 2.0 7.0 0.00 0.00 0.00 60 1013.5
20201025094331 49 249 2.0 3.0 0.00 0.00 0.00 57 1013.3
20201025092826 49 249 0.0 2.0 0.00 0.00 0.00 57 1013.2
20201025091328 49 249 0.0 4.0 0.00 0.00 0.00 57 1013.7
20201025085826 49 249 4.0 7.0 0.00 0.00 0.00 57 1013.6
20201025082830 50 275 0.0 4.0 0.00 0.00 0.00 55 1013.1
20201025081328 50 270 3.0 6.0 0.00 0.00 0.00 55 1013.0
20201025075823 51 267 2.0 4.0 0.00 0.00 0.00 54 1012.9
20201025072826 51 269 3.0 5.0 0.00 0.00 0.00 54 1012.7
20201025065914 52 267 0.0 2.0 0.00 0.00 0.00 52 1012.9
20201025062905 53 265 1.0 3.0 0.00 0.00 0.00 51 1012.9
20201025061403 53 265 1.0 4.0 0.00 0.00 0.00 51 1013.0
20201025055853 53 273 2.0 6.0 0.00 0.00 0.00 51 1013.1
20201025052908 54 252 2.0 5.0 0.00 0.00 0.00 50 1013.1
20201025051402 54 271 3.0 5.0 0.00 0.00 0.00 50 1013.0